createdAt,value
2019-03-27T00:01:55.184Z,101593.33
2019-03-27T00:04:25.054Z,101597.91
2019-03-27T00:06:54.945Z,101593.23
2019-03-27T00:09:24.789Z,101590.16
2019-03-27T00:11:54.656Z,101586.05
2019-03-27T00:14:24.492Z,101584.14
2019-03-27T00:16:54.324Z,101584.45
2019-03-27T00:19:24.211Z,101575.50
2019-03-27T00:21:54.055Z,101577.80
2019-03-27T00:24:24.303Z,101573.63
2019-03-27T00:26:54.146Z,101560.99
2019-03-27T00:29:24.022Z,101559.56
2019-03-27T00:31:53.908Z,101550.13
2019-03-27T00:34:23.748Z,101542.77
2019-03-27T00:36:53.695Z,101546.02
2019-03-27T00:39:23.498Z,101538.65
2019-03-27T00:41:53.286Z,101544.88
2019-03-27T00:44:23.543Z,101541.44
2019-03-27T00:46:53.328Z,101550.22
2019-03-27T00:49:23.210Z,101540.58
2019-03-27T00:51:53.312Z,101533.91
2019-03-27T00:54:23.386Z,101535.04
2019-03-27T00:56:53.401Z,101540.20
2019-03-27T00:59:23.421Z,101538.70
2019-03-27T01:01:53.235Z,101530.11
2019-03-27T01:04:23.394Z,101524.28
2019-03-27T01:06:53.186Z,101528.34
2019-03-27T01:09:23.117Z,101522.24
2019-03-27T01:11:52.886Z,101523.53
2019-03-27T01:14:22.717Z,101526.33
2019-03-27T01:16:52.637Z,101531.27
2019-03-27T01:19:22.426Z,101528.17
2019-03-27T01:21:52.240Z,101525.48
2019-03-27T01:24:22.011Z,101526.55
2019-03-27T01:26:51.885Z,101523.28
2019-03-27T01:29:21.638Z,101520.44
2019-03-27T01:31:51.379Z,101524.63
2019-03-27T01:34:21.567Z,101525.33
2019-03-27T01:36:51.404Z,101519.97
2019-03-27T01:39:21.567Z,101535.30
2019-03-27T01:41:51.417Z,101529.08
2019-03-27T01:44:21.194Z,101520.11
2019-03-27T01:46:51.137Z,101520.39
2019-03-27T01:49:21.853Z,101528.99
2019-03-27T01:52:12.005Z,101537.48
2019-03-27T01:54:41.782Z,101531.97
2019-03-27T01:57:11.706Z,101524.63
2019-03-27T01:59:41.709Z,101527.70
2019-03-27T02:02:11.764Z,101533.56
2019-03-27T02:04:41.591Z,101537.89
2019-03-27T02:07:11.400Z,101531.12
2019-03-27T02:09:41.202Z,101537.48
2019-03-27T02:12:10.974Z,101536.25
2019-03-27T02:14:40.793Z,101534.41
2019-03-27T02:17:10.671Z,101531.27
2019-03-27T02:19:40.422Z,101530.48
2019-03-27T02:22:49.736Z,101535.37
2019-03-27T02:25:19.750Z,101537.78
2019-03-27T02:27:49.812Z,101534.45
2019-03-27T02:30:19.563Z,101537.14
2019-03-27T02:32:49.357Z,101542.52
2019-03-27T02:35:19.404Z,101553.76
2019-03-27T02:37:50.102Z,101552.58
2019-03-27T02:40:20.117Z,101549.17
2019-03-27T02:42:49.936Z,101551.52
2019-03-27T02:45:19.720Z,101563.27
2019-03-27T02:47:49.536Z,101560.86
2019-03-27T02:50:19.797Z,101564.80
2019-03-27T02:52:49.630Z,101556.66
2019-03-27T02:55:19.733Z,101559.19
2019-03-27T02:57:49.490Z,101520.42
2019-03-27T03:00:58.416Z,101542.77
2019-03-27T03:03:28.587Z,101540.29
2019-03-27T03:05:58.359Z,101540.59
2019-03-27T03:08:28.152Z,101531.54
2019-03-27T03:10:57.966Z,101534.64
2019-03-27T03:13:27.719Z,101532.70
2019-03-27T03:15:57.490Z,101536.16
2019-03-27T03:18:27.298Z,101528.69
2019-03-27T03:20:57.054Z,101526.05
2019-03-27T03:23:26.835Z,101526.75
2019-03-27T03:25:56.720Z,101525.76
2019-03-27T03:28:26.523Z,101520.43
2019-03-27T03:30:56.301Z,101529.93
2019-03-27T03:33:26.086Z,101530.34
2019-03-27T03:35:55.898Z,101535.80
2019-03-27T03:38:25.670Z,101477.69
2019-03-27T03:40:55.560Z,101532.00
2019-03-27T03:43:25.430Z,101545.73
2019-03-27T03:45:55.269Z,101539.17
2019-03-27T03:48:25.087Z,101543.16
2019-03-27T03:51:34.059Z,101521.11
2019-03-27T03:54:24.003Z,101549.53
2019-03-27T03:57:32.894Z,101557.59
2019-03-27T04:00:44.164Z,101556.41
2019-03-27T04:03:14.235Z,101559.63
2019-03-27T04:05:44.107Z,101563.66
2019-03-27T04:08:13.887Z,101568.00
2019-03-27T04:10:43.811Z,101564.81
2019-03-27T04:13:14.004Z,101571.18
2019-03-27T04:15:43.991Z,101579.70
2019-03-27T04:18:13.727Z,101574.14
2019-03-27T04:20:43.527Z,101571.64
2019-03-27T04:23:13.300Z,101574.33
2019-03-27T04:26:08.288Z,101579.70
2019-03-27T04:28:14.642Z,101577.66
2019-03-27T04:30:44.390Z,101576.83
2019-03-27T04:33:14.146Z,101582.73
2019-03-27T04:35:43.918Z,101587.58
2019-03-27T04:38:13.703Z,101587.45
2019-03-27T04:40:43.473Z,101599.02
2019-03-27T04:43:13.305Z,101595.87
2019-03-27T04:45:43.172Z,101600.09
2019-03-27T04:48:12.976Z,101600.09
2019-03-27T04:50:42.856Z,101607.00
2019-03-27T04:53:12.638Z,101609.87
2019-03-27T04:55:42.758Z,101613.91
2019-03-27T04:58:12.553Z,101616.94
2019-03-27T05:00:42.394Z,101616.83
2019-03-27T05:03:12.202Z,101617.55
2019-03-27T05:05:42.080Z,101625.88
2019-03-27T05:08:12.062Z,101625.75
2019-03-27T05:10:41.916Z,101631.09
2019-03-27T05:13:11.746Z,101636.09
2019-03-27T05:15:41.501Z,101645.28
2019-03-27T05:18:11.700Z,101656.47
2019-03-27T05:20:41.477Z,101658.13
2019-03-27T05:23:11.284Z,101661.59
2019-03-27T05:25:41.070Z,101663.39
2019-03-27T05:28:11.765Z,101663.70
2019-03-27T05:30:41.577Z,101659.33
2019-03-27T05:33:11.452Z,101659.40
2019-03-27T05:35:41.258Z,101658.94
2019-03-27T05:38:11.106Z,101661.09
2019-03-27T05:40:40.930Z,101664.05
2019-03-27T05:43:10.793Z,101671.70
2019-03-27T05:45:40.637Z,101669.12
2019-03-27T05:48:10.788Z,101671.39
2019-03-27T05:50:40.602Z,101659.71
2019-03-27T05:53:10.822Z,101660.52
2019-03-27T05:55:40.650Z,101657.36
2019-03-27T05:58:10.643Z,101653.98
2019-03-27T06:00:40.557Z,101652.30
2019-03-27T06:03:10.897Z,101654.88
2019-03-27T06:05:41.723Z,101656.41
2019-03-27T06:08:50.672Z,101658.75
2019-03-27T06:11:20.446Z,101668.08
2019-03-27T06:13:50.282Z,101667.73
2019-03-27T06:16:20.166Z,101664.66
2019-03-27T06:18:50.025Z,101665.50
2019-03-27T06:21:19.832Z,101669.38
2019-03-27T06:23:50.027Z,101675.14
2019-03-27T06:26:19.969Z,101682.28
2019-03-27T06:28:50.103Z,101685.38
2019-03-27T06:31:19.918Z,101686.67
2019-03-27T06:33:49.752Z,101681.95
2019-03-27T06:36:19.595Z,101683.23
2019-03-27T06:38:49.822Z,101688.58
2019-03-27T06:41:19.719Z,101687.67
2019-03-27T06:43:49.556Z,101689.97
2019-03-27T06:46:19.450Z,101689.27
2019-03-27T06:48:49.336Z,101679.64
2019-03-27T06:51:19.148Z,101684.23
2019-03-27T06:53:48.987Z,101674.60
2019-03-27T06:56:18.855Z,101680.56
2019-03-27T06:58:54.359Z,101683.11
2019-03-27T07:01:20.238Z,101678.47
2019-03-27T07:03:50.354Z,101682.65
2019-03-27T07:06:20.130Z,101636.38
2019-03-27T07:08:49.935Z,101685.30
2019-03-27T07:11:19.787Z,101688.50
2019-03-27T07:13:49.588Z,101694.61
2019-03-27T07:16:19.437Z,101702.20
2019-03-27T07:18:50.748Z,101712.00
2019-03-27T07:21:20.621Z,101711.09
2019-03-27T07:23:50.472Z,101711.65
2019-03-27T07:26:20.405Z,101716.41
2019-03-27T07:28:50.729Z,101717.11
2019-03-27T07:31:20.624Z,101718.70
2019-03-27T07:33:50.867Z,101718.88
2019-03-27T07:36:20.740Z,101720.45
2019-03-27T07:38:50.519Z,101726.79
2019-03-27T07:41:20.610Z,101725.58
2019-03-27T07:43:50.673Z,101721.57
2019-03-27T07:46:21.410Z,101723.12
2019-03-27T07:48:54.140Z,101717.44
2019-03-27T07:51:22.733Z,101713.47
2019-03-27T07:53:52.519Z,101714.31
2019-03-27T07:56:23.153Z,101711.81
2019-03-27T07:58:53.040Z,101717.59
2019-03-27T08:01:23.018Z,101714.35
2019-03-27T08:03:52.765Z,101718.16
2019-03-27T08:06:22.535Z,101706.97
2019-03-27T08:08:52.468Z,101711.48
2019-03-27T08:11:22.817Z,101711.94
2019-03-27T08:13:52.591Z,101707.92
2019-03-27T08:16:22.408Z,101705.67
2019-03-27T08:18:52.149Z,101705.38
2019-03-27T08:21:21.951Z,101702.56
2019-03-27T08:23:51.756Z,101703.02
2019-03-27T08:26:21.598Z,101697.86
2019-03-27T08:28:51.462Z,101698.84
2019-03-27T08:31:21.373Z,101695.70
2019-03-27T08:33:51.142Z,101704.16
2019-03-27T08:36:20.896Z,101704.59
2019-03-27T08:38:50.718Z,101696.55
2019-03-27T08:41:20.479Z,101699.09
2019-03-27T08:43:50.602Z,101694.97
2019-03-27T08:46:20.350Z,101695.52
2019-03-27T08:48:50.142Z,101696.50
2019-03-27T08:51:19.903Z,101703.25
2019-03-27T08:53:49.707Z,101702.74
2019-03-27T08:56:19.474Z,101698.80
2019-03-27T08:58:49.243Z,101712.09
2019-03-27T09:01:19.053Z,101712.01
2019-03-27T09:03:48.885Z,101716.30
2019-03-27T09:06:32.782Z,101715.02
2019-03-27T09:08:51.031Z,101710.58
2019-03-27T09:11:20.840Z,101715.40
2019-03-27T09:13:50.616Z,101725.05
2019-03-27T09:16:20.442Z,101724.84
2019-03-27T09:18:50.212Z,101724.30
2019-03-27T09:21:20.369Z,101727.36
2019-03-27T09:23:50.182Z,101733.00
2019-03-27T09:26:19.948Z,101728.82
2019-03-27T09:28:49.741Z,101725.93
2019-03-27T09:31:19.544Z,101725.09
2019-03-27T09:33:49.330Z,101726.22
2019-03-27T09:36:19.401Z,101742.14
2019-03-27T09:38:49.227Z,101743.93
2019-03-27T09:41:21.431Z,101747.89
2019-03-27T09:43:50.506Z,101749.02
2019-03-27T09:46:20.270Z,101752.91
2019-03-27T09:48:50.056Z,101751.66
2019-03-27T09:51:19.813Z,101752.02
2019-03-27T09:53:52.954Z,101752.23
2019-03-27T09:56:21.079Z,101758.11
2019-03-27T09:59:09.977Z,101758.80
2019-03-27T10:01:39.722Z,101762.20
2019-03-27T10:04:09.913Z,101758.56
2019-03-27T10:06:39.945Z,101759.43
2019-03-27T10:09:09.799Z,101759.66
2019-03-27T10:11:39.578Z,101755.98
2019-03-27T10:14:09.368Z,101760.34
2019-03-27T10:16:39.179Z,101763.31
2019-03-27T10:19:08.962Z,101764.68
2019-03-27T10:21:38.745Z,101767.86
2019-03-27T10:24:08.499Z,101764.44
2019-03-27T10:26:38.310Z,101764.05
2019-03-27T10:29:08.118Z,101771.15
2019-03-27T10:31:38.063Z,101765.71
2019-03-27T10:34:07.924Z,101763.52
2019-03-27T10:36:37.751Z,101772.03
2019-03-27T10:39:08.524Z,101762.40
2019-03-27T10:41:38.398Z,101773.20
2019-03-27T10:44:08.170Z,101773.64
2019-03-27T10:46:38.043Z,101775.20
2019-03-27T10:49:07.827Z,101771.02
2019-03-27T10:51:37.637Z,101778.73
2019-03-27T10:54:07.406Z,101775.08
2019-03-27T10:56:37.289Z,101776.83
2019-03-27T10:59:07.091Z,101775.80
2019-03-27T11:01:36.949Z,101772.59
2019-03-27T11:04:06.760Z,101774.78
2019-03-27T11:06:36.564Z,101777.59
2019-03-27T11:09:09.495Z,101785.67
2019-03-27T11:11:39.374Z,101808.79
2019-03-27T11:14:09.145Z,101820.50
2019-03-27T11:19:54.196Z,101847.20
2019-03-27T11:22:24.026Z,101844.59
2019-03-27T11:24:53.830Z,101844.10
2019-03-27T11:27:23.687Z,101850.23
2019-03-27T11:29:53.796Z,101851.95
2019-03-27T11:32:23.714Z,101862.88
2019-03-27T11:34:58.614Z,101862.50
2019-03-27T11:37:28.689Z,101864.97
2019-03-27T11:39:59.038Z,101865.43
2019-03-27T11:42:29.048Z,101866.81
2019-03-27T11:45:17.989Z,101862.12
2019-03-27T11:47:47.955Z,101865.39
2019-03-27T11:50:18.020Z,101861.97
2019-03-27T11:52:48.896Z,101863.05
2019-03-27T11:55:57.818Z,101861.94
2019-03-27T11:58:28.161Z,101864.84
2019-03-27T12:00:58.008Z,101865.77
2019-03-27T12:03:27.997Z,101872.94
2019-03-27T12:05:58.310Z,101843.48
2019-03-27T12:08:28.338Z,101870.63
2019-03-27T12:10:58.225Z,101872.38
2019-03-27T12:13:28.765Z,101868.76
2019-03-27T12:16:00.307Z,101868.20
2019-03-27T12:18:31.967Z,101868.82
2019-03-27T12:21:02.359Z,101865.20
2019-03-27T12:23:32.367Z,101862.88
2019-03-27T12:26:02.366Z,101864.51
2019-03-27T12:28:32.243Z,101874.07
2019-03-27T12:31:02.148Z,101876.55
2019-03-27T12:33:50.826Z,101866.25
2019-03-27T12:36:20.718Z,101873.74
2019-03-27T12:38:51.598Z,101867.42
2019-03-27T12:41:21.447Z,101864.72
2019-03-27T12:43:51.229Z,101865.59
2019-03-27T12:46:21.422Z,101858.53
2019-03-27T12:48:51.224Z,101850.78
2019-03-27T12:51:21.031Z,101845.81
2019-03-27T12:53:52.307Z,101847.80
2019-03-27T12:56:22.243Z,101847.88
2019-03-27T12:58:52.082Z,101850.34
2019-03-27T13:01:21.975Z,101846.43
2019-03-27T13:03:51.822Z,101848.30
2019-03-27T13:06:21.726Z,101843.56
2019-03-27T13:08:51.612Z,101852.62
2019-03-27T13:11:21.468Z,101850.53
2019-03-27T13:13:51.355Z,101846.84
2019-03-27T13:16:21.116Z,101849.70
2019-03-27T13:18:51.741Z,101847.31
2019-03-27T13:21:26.589Z,101841.78
2019-03-27T13:23:53.448Z,101844.78
2019-03-27T13:26:23.305Z,101841.77
2019-03-27T13:28:53.129Z,101837.19
2019-03-27T13:31:22.994Z,101835.97
2019-03-27T13:33:52.897Z,101832.05
2019-03-27T13:36:22.738Z,101827.49
2019-03-27T13:38:52.678Z,101828.91
2019-03-27T13:41:22.524Z,101831.14
2019-03-27T13:43:52.383Z,101825.51
2019-03-27T13:46:22.188Z,101827.52
2019-03-27T13:49:31.093Z,101825.60
2019-03-27T13:52:00.905Z,101823.63
2019-03-27T13:54:31.397Z,101829.05
2019-03-27T13:57:01.256Z,101819.30
2019-03-27T13:59:31.634Z,101834.93
2019-03-27T14:02:01.480Z,101830.14
2019-03-27T14:04:31.320Z,101833.02
2019-03-27T14:07:01.247Z,101831.59
2019-03-27T14:12:30.298Z,101829.78
2019-03-27T14:15:02.340Z,101829.73
2019-03-27T14:17:32.182Z,101824.83
2019-03-27T14:20:02.382Z,101831.89
2019-03-27T14:22:32.228Z,101836.93
2019-03-27T14:25:02.295Z,101837.75
2019-03-27T14:27:32.230Z,101837.16
2019-03-27T14:30:02.416Z,101828.62
2019-03-27T14:32:32.368Z,101835.50
2019-03-27T14:35:02.311Z,101834.80
2019-03-27T14:37:32.428Z,101825.70
2019-03-27T14:43:22.783Z,101831.73
2019-03-27T14:45:54.453Z,101836.77
2019-03-27T14:48:44.551Z,101833.42
2019-03-27T14:51:14.437Z,101835.52
2019-03-27T14:53:44.517Z,101844.53
2019-03-27T14:58:53.704Z,101838.30
2019-03-27T15:01:23.674Z,101838.11
2019-03-27T15:03:53.558Z,101839.75
2019-03-27T15:06:59.817Z,101838.84
2019-03-27T15:09:30.177Z,101829.54
2019-03-27T15:12:00.476Z,101827.08
2019-03-27T15:14:30.453Z,101834.59
2019-03-27T15:17:00.542Z,101819.16
2019-03-27T15:19:31.276Z,101827.63
2019-03-27T15:22:01.101Z,101833.46
2019-03-27T15:24:30.913Z,101830.86
2019-03-27T15:27:00.913Z,101822.45
2019-03-27T15:29:50.007Z,101827.63
2019-03-27T15:32:19.985Z,101824.72
2019-03-27T16:21:20.329Z,101835.97
2019-03-27T17:31:24.956Z,101843.14
2019-03-27T17:34:05.524Z,101843.89
2019-03-27T17:36:35.484Z,101848.74
2019-03-27T17:49:46.239Z,101839.19
2019-03-27T17:52:16.318Z,101832.63
2019-03-27T17:54:46.506Z,101838.91
2019-03-27T17:57:16.690Z,101843.50
2019-03-27T18:22:19.565Z,101830.23
2019-03-27T18:24:49.852Z,101833.87
2019-03-27T18:27:19.735Z,101839.28
2019-03-27T18:29:49.818Z,101832.21
2019-03-27T18:32:20.386Z,101837.08
2019-03-27T18:34:50.438Z,101828.20
2019-03-27T18:37:20.419Z,101833.44
2019-03-27T18:40:12.983Z,101830.09
2019-03-27T22:10:13.394Z,101803.05
2019-03-27T22:55:50.717Z,101825.63
2019-03-27T23:26:11.940Z,101835.13
2019-03-27T23:28:41.742Z,101829.02
2019-03-27T23:31:11.499Z,101829.97
2019-03-27T23:33:42.015Z,101831.71
2019-03-27T23:36:12.152Z,101829.66
2019-03-27T23:38:42.005Z,101824.58
2019-03-27T23:41:11.825Z,101830.73
2019-03-27T23:43:41.701Z,101824.09
2019-03-27T23:46:11.572Z,101820.92
2019-03-27T23:48:41.398Z,101828.16
2019-03-27T23:51:11.230Z,101830.91
2019-03-27T23:53:41.081Z,101831.72
2019-03-27T23:56:16.556Z,101829.48
2019-03-27T23:58:42.814Z,101834.31
